Time;durP1;ratioP1;P1;durP2;ratioP2;P2;SDS_P1;SDS_P2;PMS_P1;PMS_P2;Temp;Humidity;BMP_temperature;BMP_pressure;BME280_temperature;BME280_humidity;BME280_pressure;Samples;Min_cycle;Max_cycle;Signal;HPM_P1;HPM_P2
2022/12/12 00:02:18;;;;;;;57.35;18.45;;;;;;;-148.88;100.00;77176.97;5019428;28;20018;-84
2022/12/12 00:04:43;;;;;;;59.05;18.30;;;;;;;-148.88;100.00;77187.13;5020981;28;20026;-84
2022/12/12 00:07:08;;;;;;;53.28;17.55;;;;;;;-148.88;100.00;77191.19;5020434;28;20034;-84
2022/12/12 00:09:34;;;;;;;54.95;16.33;;;;;;;-148.88;100.00;77187.13;5020339;28;20034;-84
2022/12/12 00:11:59;;;;;;;54.80;17.13;;;;;;;-148.88;100.00;77187.13;5020260;28;20086;-85
2022/12/12 00:14:24;;;;;;;48.67;16.40;;;;;;;-148.88;100.00;77191.19;5013616;28;20032;-84
2022/12/12 00:16:52;;;;;;;42.38;16.25;;;;;;;-148.88;100.00;77197.28;5014968;28;20026;-85
2022/12/12 00:19:17;;;;;;;52.70;17.13;;;;;;;-148.88;100.00;77195.25;5015261;28;20071;-85
2022/12/12 00:21:43;;;;;;;45.78;17.55;;;;;;;-148.88;100.00;77203.41;5014546;28;20021;-84
2022/12/12 00:24:08;;;;;;;50.13;16.52;;;;;;;-148.88;100.00;77207.47;5016257;28;20048;-84
2022/12/12 00:26:34;;;;;;;46.53;16.35;;;;;;;-148.88;100.00;77211.53;5014816;28;20116;-84
2022/12/12 00:29:01;;;;;;;46.33;16.13;;;;;;;-148.88;100.00;77207.47;5014861;28;20344;-84
2022/12/12 00:31:27;;;;;;;39.53;14.93;;;;;;;-148.88;100.00;77207.47;5015457;28;20026;-84
2022/12/12 00:33:52;;;;;;;47.42;16.30;;;;;;;-148.88;100.00;77211.53;5015081;28;20040;-84
2022/12/12 00:36:20;;;;;;;46.63;17.80;;;;;;;-148.88;100.00;77213.56;5017261;28;20488;-84
2022/12/12 00:38:46;;;;;;;47.15;16.52;;;;;;;-148.88;100.00;77213.56;5015451;28;20018;-84
2022/12/12 00:41:12;;;;;;;50.83;17.70;;;;;;;-148.88;100.00;77215.59;5015598;28;20033;-83
2022/12/12 00:43:38;;;;;;;44.42;16.00;;;;;;;-148.88;100.00;77213.56;5015864;28;20128;-85
2022/12/12 00:46:04;;;;;;;44.30;16.38;;;;;;;-148.88;100.00;77217.63;5017179;28;20026;-84
2022/12/12 00:48:29;;;;;;;48.35;16.73;;;;;;;-148.88;100.00;77233.88;5017238;28;20061;-83
2022/12/12 00:50:55;;;;;;;45.67;17.15;;;;;;;-148.88;100.00;77239.97;5018424;28;20034;-84
2022/12/12 00:53:21;;;;;;;44.17;16.73;;;;;;;-148.88;100.00;77239.97;5018152;28;20029;-84
2022/12/12 00:55:56;;;;;;;43.85;17.42;;;;;;;-148.88;100.00;77239.97;5019178;28;20056;-83
2022/12/12 00:58:22;;;;;;;47.60;17.45;;;;;;;-148.88;100.00;77246.06;5019129;28;20121;-84
2022/12/12 01:00:48;;;;;;;51.92;18.02;;;;;;;-148.88;100.00;77254.19;5018539;28;20103;-83
2022/12/12 01:03:13;;;;;;;51.63;16.23;;;;;;;-148.88;100.00;77256.22;5018405;28;20048;-84
2022/12/12 01:05:39;;;;;;;51.35;17.60;;;;;;;-148.88;100.00;77262.31;5018292;28;20508;-84
2022/12/12 01:08:04;;;;;;;46.60;16.27;;;;;;;-148.88;100.00;77268.41;5018655;28;20068;-84
2022/12/12 01:10:30;;;;;;;48.80;17.30;;;;;;;-148.88;100.00;77272.47;5019722;28;20381;-83
2022/12/12 01:12:55;;;;;;;54.45;17.50;;;;;;;-148.88;100.00;77272.47;5019002;28;20090;-84
2022/12/12 01:15:20;;;;;;;48.55;17.08;;;;;;;-148.88;100.00;77274.50;5019729;28;20057;-83
2022/12/12 01:17:46;;;;;;;45.88;16.55;;;;;;;-148.88;100.00;77278.56;5020454;28;20029;-85
2022/12/12 01:20:18;;;;;;;47.83;16.98;;;;;;;-148.88;100.00;77280.59;5018701;28;20117;-85
2022/12/12 01:22:44;;;;;;;46.70;16.13;;;;;;;-148.88;100.00;77274.50;5017372;28;20041;-83
2022/12/12 01:25:14;;;;;;;47.22;18.58;;;;;;;-148.88;100.00;77284.66;5016670;28;20018;-84
2022/12/12 01:27:39;;;;;;;48.15;17.55;;;;;;;-148.88;100.00;77288.72;5019071;28;20029;-84
2022/12/12 01:30:06;;;;;;;44.38;15.77;;;;;;;-148.88;100.00;77290.75;5017582;28;20026;-84
2022/12/12 01:32:32;;;;;;;46.35;15.77;;;;;;;-148.88;100.00;77288.72;5017718;28;20014;-84
2022/12/12 01:34:57;;;;;;;48.33;17.50;;;;;;;-148.88;100.00;77296.88;5018439;28;20484;-84
2022/12/12 01:37:22;;;;;;;42.65;14.88;;;;;;;-148.88;100.00;77292.81;5017664;28;20034;-84
2022/12/12 01:39:48;;;;;;;49.38;18.15;;;;;;;-148.88;100.00;77300.94;5018851;28;20097;-84
2022/12/12 01:42:17;;;;;;;46.90;17.17;;;;;;;-148.88;100.00;77302.97;5020125;28;20083;-84
2022/12/12 01:44:46;;;;;;;47.97;17.23;;;;;;;-148.88;100.00;77305.00;5018643;28;20074;-83
2022/12/12 01:47:18;;;;;;;50.42;17.55;;;;;;;-148.88;100.00;77309.06;5018283;28;20021;-83
2022/12/12 01:49:49;;;;;;;54.13;18.23;;;;;;;-148.88;100.00;77309.06;5017665;28;20022;-84
2022/12/12 01:52:19;;;;;;;49.13;17.90;;;;;;;-148.88;100.00;77317.19;5019266;28;20068;-84
2022/12/12 01:54:49;;;;;;;48.78;18.02;;;;;;;-148.88;100.00;77321.25;5018498;28;20034;-84
2022/12/12 01:57:24;;;;;;;49.78;18.17;;;;;;;-148.88;100.00;77319.22;5021615;28;20029;-85
2022/12/12 01:59:49;;;;;;;48.33;18.45;;;;;;;-148.88;100.00;77321.25;5026810;28;20109;-85
2022/12/12 02:02:14;;;;;;;48.53;16.88;;;;;;;-148.88;100.00;77321.25;5026552;28;20030;-85
2022/12/12 02:04:41;;;;;;;40.72;14.45;;;;;;;-148.88;100.00;77329.38;5026257;28;20041;-83
2022/12/12 02:07:06;;;;;;;46.35;17.48;;;;;;;-148.88;100.00;77327.34;5022016;28;20022;-84
2022/12/12 02:09:33;;;;;;;44.58;17.13;;;;;;;-148.88;100.00;77331.41;5016322;28;20024;-84
2022/12/12 02:11:58;;;;;;;49.80;16.83;;;;;;;-148.88;100.00;77325.31;5015030;28;20112;-84
2022/12/12 02:14:37;;;;;;;42.28;15.77;;;;;;;-148.88;100.00;77323.28;5015054;28;20067;-84
2022/12/12 02:17:22;;;;;;;49.15;16.15;;;;;;;-148.88;100.00;77327.34;5016845;28;20037;-84
2022/12/12 02:20:06;;;;;;;47.67;18.02;;;;;;;-148.88;100.00;77329.38;5014779;28;20029;-84
2022/12/12 02:22:34;;;;;;;52.17;17.27;;;;;;;-148.88;100.00;77339.53;5016163;28;20044;-84
2022/12/12 02:25:12;;;;;;;42.85;15.75;;;;;;;-148.88;100.00;77353.75;5014893;28;20072;-84
2022/12/12 02:27:52;;;;;;;50.25;17.33;;;;;;;-148.88;100.00;77361.88;5016092;28;20048;-84
2022/12/12 02:30:24;;;;;;;50.75;17.33;;;;;;;-148.88;100.00;77359.84;5015215;28;20484;-84
2022/12/12 02:32:59;;;;;;;51.17;17.15;;;;;;;-148.88;100.00;77353.75;5014537;28;20046;-83
2022/12/12 02:35:43;;;;;;;50.05;18.20;;;;;;;-148.88;100.00;77357.81;5013102;28;20489;-83
2022/12/12 02:38:26;;;;;;;47.72;17.48;;;;;;;-148.88;100.00;77357.81;5014088;28;20030;-83
2022/12/12 02:41:00;;;;;;;48.35;17.10;;;;;;;-148.88;100.00;77367.97;5014295;28;20026;-83
2022/12/12 02:43:46;;;;;;;54.05;18.42;;;;;;;-148.88;100.00;77374.09;5012799;28;20061;-83
2022/12/12 02:46:40;;;;;;;47.42;18.35;;;;;;;-148.88;100.00;77365.94;5014335;28;20453;-83
2022/12/12 02:49:10;;;;;;;;;;;;;;;-148.88;100.00;77370.00;5010295;28;20064;-83
2022/12/12 02:51:37;;;;;;;55.38;17.85;;;;;;;-148.88;100.00;77384.25;5012466;28;19917;-83
2022/12/12 02:54:04;;;;;;;51.00;17.45;;;;;;;-148.88;100.00;77386.28;5014190;28;20038;-83
2022/12/12 02:56:44;;;;;;;53.45;18.27;;;;;;;-148.88;100.00;77380.19;5012783;28;20022;-83
2022/12/12 02:59:37;;;;;;;47.20;18.60;;;;;;;-148.88;100.00;77380.19;5013606;28;20088;-83
2022/12/12 03:02:15;;;;;;;40.90;16.48;;;;;;;-148.88;100.00;77382.22;5009943;28;20476;-82
2022/12/12 03:08:01;;;;;;;48.38;17.80;;;;;;;-148.88;100.00;77390.34;4983739;28;20036;-83
2022/12/12 03:11:03;;;;;;;47.33;17.15;;;;;;;-148.88;100.00;77396.44;5011571;28;20065;-83
2022/12/12 03:13:50;;;;;;;49.45;16.90;;;;;;;-148.88;100.00;77390.34;4973123;28;20088;-83
2022/12/12 03:16:41;;;;;;;51.00;17.73;;;;;;;-148.88;100.00;77390.34;5012565;28;20018;-83
2022/12/12 03:19:23;;;;;;;51.25;18.38;;;;;;;-148.88;100.00;77396.44;5014159;28;20041;-83
2022/12/12 03:21:53;;;;;;;49.63;17.33;;;;;;;-148.88;100.00;77394.41;5013778;28;20097;-83
2022/12/12 03:24:33;;;;;;;54.00;18.33;;;;;;;-148.88;100.00;77394.41;5013673;28;20463;-83
2022/12/12 03:27:10;;;;;;;45.08;16.73;;;;;;;-148.88;100.00;77394.41;5014058;28;20446;-84
2022/12/12 03:29:45;;;;;;;49.15;18.95;;;;;;;-148.88;100.00;77394.41;5013575;28;20028;-84
2022/12/12 03:32:18;;;;;;;40.47;15.93;;;;;;;-148.88;100.00;77392.38;5013637;28;20084;-83
2022/12/12 03:34:57;;;;;;;42.88;16.50;;;;;;;-148.88;100.00;77392.38;5012521;28;20022;-83
2022/12/12 03:37:30;;;;;;;48.45;16.95;;;;;;;-148.88;100.00;77390.34;5013525;28;20029;-83
2022/12/12 03:40:00;;;;;;;49.00;16.50;;;;;;;-148.88;100.00;77398.47;5013809;28;20021;-84
2022/12/12 03:42:33;;;;;;;50.30;17.90;;;;;;;-148.88;100.00;77402.53;5011486;28;20136;-84
2022/12/12 03:45:11;;;;;;;48.25;18.00;;;;;;;-148.88;100.00;77404.56;5012010;28;20429;-83
2022/12/12 03:48:18;;;;;;;50.08;17.80;;;;;;;-148.88;100.00;77406.59;5012171;28;20045;-83
2022/12/12 03:50:47;;;;;;;45.78;17.45;;;;;;;-148.88;100.00;77410.66;5021517;28;20026;-83
2022/12/12 03:53:21;;;;;;;45.60;15.50;;;;;;;-148.88;100.00;77410.66;5013430;28;20034;-83
2022/12/12 03:55:53;;;;;;;43.45;16.38;;;;;;;-148.88;100.00;77406.59;5013457;28;20113;-83
2022/12/12 03:58:28;;;;;;;50.00;17.83;;;;;;;-148.88;100.00;77400.50;5012858;28;20554;-82
2022/12/12 04:00:56;;;;;;;53.05;17.20;;;;;;;-148.88;100.00;77414.72;5014414;28;20029;-84
2022/12/12 04:03:42;;;;;;;56.38;18.55;;;;;;;-148.88;100.00;77422.84;5014916;28;20108;-83
2022/12/12 04:06:26;;;;;;;52.08;18.65;;;;;;;-148.88;100.00;77430.97;5013873;28;20046;-83
2022/12/12 04:14:59;;;;;;;47.17;17.55;;;;;;;-148.88;100.00;77418.78;5014736;28;20128;-84
2022/12/12 04:17:47;;;;;;;48.83;18.13;;;;;;;-148.88;100.00;77418.78;5014894;28;20036;-82
2022/12/12 04:24:16;;;;;;;49.17;17.15;;;;;;;-148.88;100.00;77435.03;4941859;28;20034;-82
2022/12/12 04:27:10;;;;;;;50.08;17.70;;;;;;;-148.88;100.00;77439.09;5018921;28;20030;-84
2022/12/12 04:30:02;;;;;;;56.58;18.02;;;;;;;-148.88;100.00;77449.25;5017271;28;20032;-84
2022/12/12 04:32:30;;;;;;;49.83;18.02;;;;;;;-148.88;100.00;77447.22;5018094;28;20080;-85
2022/12/12 04:35:04;;;;;;;52.92;17.88;;;;;;;-148.88;100.00;77451.28;5016570;28;20396;-83
2022/12/12 04:37:34;;;;;;;51.92;19.02;;;;;;;-148.88;100.00;77443.16;5018159;28;20033;-82
2022/12/12 04:40:03;;;;;;;44.42;17.40;;;;;;;-148.88;100.00;77449.25;5016827;28;20025;-83
2022/12/12 04:42:33;;;;;;;48.03;17.73;;;;;;;-148.88;100.00;77453.31;5018100;28;20373;-83
2022/12/12 04:45:06;;;;;;;53.70;18.92;;;;;;;-148.88;100.00;77451.28;5017628;28;20109;-83
2022/12/12 04:47:33;;;;;;;45.83;17.15;;;;;;;-148.88;100.00;77457.41;5016469;28;20018;-83
2022/12/12 04:50:00;;;;;;;51.55;17.77;;;;;;;-148.88;100.00;77455.38;5015752;28;20098;-83
2022/12/12 04:52:29;;;;;;;48.00;18.08;;;;;;;-148.88;100.00;77447.22;5015974;28;20539;-83
2022/12/12 04:55:14;;;;;;;45.42;16.67;;;;;;;-148.88;100.00;77447.22;5016194;28;20029;-83
2022/12/12 04:57:47;;;;;;;55.58;18.42;;;;;;;-148.88;100.00;77455.38;5016900;28;20064;-81
2022/12/12 05:00:13;;;;;;;55.42;18.45;;;;;;;-148.88;100.00;77459.44;5017974;28;20030;-81
2022/12/12 05:03:00;;;;;;;54.28;18.48;;;;;;;-148.88;100.00;77465.53;5019386;28;20033;-82
2022/12/12 05:05:33;;;;;;;45.30;16.58;;;;;;;-148.88;100.00;77459.44;5019486;28;20030;-82
2022/12/12 05:08:01;;;;;;;;;;;;;;;-148.88;100.00;77461.47;5016858;28;20025;-81
2022/12/12 05:10:27;;;;;;;52.33;17.40;;;;;;;-148.88;100.00;77469.59;5018205;28;19913;-82
2022/12/12 05:12:57;;;;;;;47.13;17.42;;;;;;;-148.88;100.00;77471.63;5019534;28;20029;-81
2022/12/12 05:15:23;;;;;;;51.65;17.52;;;;;;;-148.88;100.00;77471.63;5019467;28;20128;-83
2022/12/12 05:18:04;;;;;;;50.10;18.75;;;;;;;-148.88;100.00;77475.69;5023010;28;20088;-84
2022/12/12 05:20:29;;;;;;;49.72;16.60;;;;;;;-148.88;100.00;77483.81;5026965;28;20022;-84
2022/12/12 05:22:54;;;;;;;53.70;18.50;;;;;;;-148.88;100.00;77475.69;5024546;28;20035;-86
2022/12/12 05:25:20;;;;;;;48.85;18.20;;;;;;;-148.88;100.00;77475.69;5023198;28;20026;-84
2022/12/12 05:27:45;;;;;;;49.05;16.90;;;;;;;-148.88;100.00;77471.63;5026564;28;20048;-85
2022/12/12 05:30:11;;;;;;;63.17;18.65;;;;;;;-148.88;100.00;77481.78;5021876;28;20022;-84
2022/12/12 05:32:36;;;;;;;54.78;18.63;;;;;;;-148.88;100.00;77483.81;5021425;28;20053;-84
2022/12/12 05:35:02;;;;;;;47.90;17.13;;;;;;;-148.88;100.00;77487.88;5024077;28;20116;-84
2022/12/12 05:37:27;;;;;;;53.42;18.05;;;;;;;-148.88;100.00;77487.88;5022986;28;20029;-84
2022/12/12 05:39:52;;;;;;;58.05;19.48;;;;;;;-148.88;100.00;77489.91;5024741;28;20157;-84
2022/12/12 05:42:18;;;;;;;56.15;18.83;;;;;;;-148.88;100.00;77491.94;5019597;28;20053;-86
2022/12/12 05:44:43;;;;;;;55.72;20.77;;;;;;;-148.88;100.00;77485.84;5019619;28;20032;-85
2022/12/12 05:47:08;;;;;;;55.08;18.42;;;;;;;-148.88;100.00;77483.81;5017040;28;20037;-86
2022/12/12 05:49:34;;;;;;;44.10;16.63;;;;;;;-148.88;100.00;77498.03;5019809;28;20527;-85
2022/12/12 05:51:59;;;;;;;51.92;18.90;;;;;;;-148.88;100.00;77491.94;5018675;28;20026;-86
2022/12/12 05:54:24;;;;;;;53.67;17.98;;;;;;;-148.88;100.00;77502.09;5020227;28;20061;-86
2022/12/12 05:56:50;;;;;;;48.78;17.75;;;;;;;-148.88;100.00;77504.13;5021922;28;20030;-86
2022/12/12 05:59:15;;;;;;;55.47;18.23;;;;;;;-148.88;100.00;77524.44;5015948;28;20025;-86
2022/12/12 06:01:40;;;;;;;55.90;18.45;;;;;;;-148.88;100.00;77526.47;5015295;28;20038;-86
2022/12/12 06:04:06;;;;;;;51.20;18.23;;;;;;;-148.88;100.00;77516.31;5017008;28;20022;-87
2022/12/12 06:06:32;;;;;;;48.88;18.35;;;;;;;-148.88;100.00;77512.25;5015502;28;20096;-87
2022/12/12 06:08:57;;;;;;;52.08;19.67;;;;;;;-148.88;100.00;77512.25;5014497;28;20049;-87
2022/12/12 06:11:22;;;;;;;55.50;17.80;;;;;;;-148.88;100.00;77522.41;5014979;28;20026;-87
2022/12/12 06:13:47;;;;;;;55.95;19.52;;;;;;;-148.88;100.00;77532.59;5019162;28;20089;-85
2022/12/12 06:16:16;;;;;;;49.08;17.60;;;;;;;-148.88;100.00;77526.47;5015294;28;20061;-88
2022/12/12 06:18:41;;;;;;;49.78;18.05;;;;;;;-148.88;100.00;77520.38;5014804;28;20030;-88
2022/12/12 06:21:09;;;;;;;45.75;16.77;;;;;;;-148.88;100.00;77516.31;5014423;28;20022;-88
2022/12/12 06:23:36;;;;;;;58.50;19.48;;;;;;;-148.88;100.00;77514.28;5014612;28;20034;-88
2022/12/12 06:26:03;;;;;;;50.10;16.98;;;;;;;-148.88;100.00;77512.25;5014517;28;20026;-87
2022/12/12 06:28:28;;;;;;;49.22;17.63;;;;;;;-148.88;100.00;77520.38;5014609;28;20421;-88
2022/12/12 06:30:53;;;;;;;56.58;18.83;;;;;;;-148.88;100.00;77532.59;5014758;28;20131;-87
2022/12/12 06:33:18;;;;;;;42.60;17.17;;;;;;;-148.88;100.00;77540.72;5014903;28;20034;-88
2022/12/12 06:35:44;;;;;;;52.78;18.65;;;;;;;-148.88;100.00;77528.50;5014679;28;20018;-87
2022/12/12 06:38:09;;;;;;;58.03;21.17;;;;;;;-148.88;100.00;77534.63;5014577;28;20106;-88
2022/12/12 06:40:38;;;;;;;55.17;19.08;;;;;;;-148.88;100.00;77536.66;5014632;28;20044;-88
2022/12/12 06:43:04;;;;;;;45.15;16.77;;;;;;;-148.88;100.00;77520.38;5013919;28;20061;-88
2022/12/12 06:45:29;;;;;;;48.53;17.65;;;;;;;-148.88;100.00;77524.44;5014285;28;20065;-89
2022/12/12 06:47:54;;;;;;;61.03;19.98;;;;;;;-148.88;100.00;77526.47;5014327;28;20026;-88
2022/12/12 06:50:19;;;;;;;54.17;18.77;;;;;;;-148.88;100.00;77544.78;5014232;28;20040;-88
2022/12/12 06:52:45;;;;;;;53.00;16.92;;;;;;;-148.88;100.00;77548.84;5014435;28;20084;-88
2022/12/12 06:55:10;;;;;;;47.38;18.38;;;;;;;-148.88;100.00;77548.84;5014470;28;20188;-88
2022/12/12 06:57:35;;;;;;;58.25;18.08;;;;;;;-148.88;100.00;77542.75;5015643;28;20395;-87
2022/12/12 07:00:01;;;;;;;55.42;18.08;;;;;;;-148.88;100.00;77544.78;5014133;28;20500;-88
2022/12/12 07:02:26;;;;;;;50.88;17.75;;;;;;;-148.88;100.00;77556.97;5014079;28;20037;-87
2022/12/12 07:04:52;;;;;;;44.13;15.57;;;;;;;-148.88;100.00;77556.97;5014779;28;20518;-87
2022/12/12 07:07:17;;;;;;;50.53;17.98;;;;;;;-148.88;100.00;77577.28;5014388;28;20029;-88
2022/12/12 07:09:42;;;;;;;49.53;17.27;;;;;;;-148.88;100.00;77569.16;5014028;28;20029;-87
2022/12/12 07:12:08;;;;;;;48.72;17.13;;;;;;;-148.88;100.00;77565.09;5013773;28;20535;-88
2022/12/12 07:14:33;;;;;;;55.03;18.20;;;;;;;-148.88;100.00;77563.06;5012689;28;20022;-87
2022/12/12 07:16:58;;;;;;;43.08;16.45;;;;;;;-148.88;100.00;77573.22;5013671;28;20030;-87
2022/12/12 07:19:25;;;;;;;52.10;17.70;;;;;;;-148.88;100.00;77581.34;5014203;28;20126;-88
2022/12/12 07:21:50;;;;;;;54.15;16.67;;;;;;;-148.88;100.00;77589.47;5014943;28;20472;-87
2022/12/12 07:24:16;;;;;;;51.00;17.80;;;;;;;-148.88;100.00;77609.81;5015793;28;20037;-88
2022/12/12 07:26:41;;;;;;;51.65;17.45;;;;;;;-148.88;100.00;77603.69;5017169;28;20159;-87
2022/12/12 07:29:06;;;;;;;53.60;17.75;;;;;;;-148.88;100.00;77605.75;5013891;28;20037;-88
2022/12/12 07:31:32;;;;;;;52.47;18.83;;;;;;;-148.88;100.00;77599.63;5013687;28;20018;-87
2022/12/12 07:33:57;;;;;;;52.38;19.20;;;;;;;-148.88;100.00;77607.78;5014134;28;20032;-87
2022/12/12 07:36:22;;;;;;;47.78;17.33;;;;;;;-148.88;100.00;77609.81;5013868;28;20052;-88
2022/12/12 07:38:48;;;;;;;51.35;17.38;;;;;;;-148.88;100.00;77609.81;5013516;28;20041;-88
2022/12/12 07:41:17;;;;;;;46.22;17.00;;;;;;;-148.88;100.00;77605.75;5013340;28;20038;-88
2022/12/12 07:43:44;;;;;;;56.75;18.20;;;;;;;-148.88;100.00;77611.84;5013041;28;20026;-88
2022/12/12 07:46:12;;;;;;;48.45;17.30;;;;;;;-148.88;100.00;77605.75;5013233;28;20022;-88
2022/12/12 07:48:38;;;;;;;47.78;17.60;;;;;;;-148.88;100.00;77611.84;5013465;28;20397;-87
2022/12/12 07:51:03;;;;;;;50.50;19.10;;;;;;;-148.88;100.00;77615.91;5013299;28;20026;-87
2022/12/12 07:53:29;;;;;;;51.97;19.42;;;;;;;-148.88;100.00;77630.13;5013177;28;20034;-88
2022/12/12 07:55:55;;;;;;;54.38;19.50;;;;;;;-148.88;100.00;77626.06;5013082;28;20113;-88
2022/12/12 07:58:21;;;;;;;53.50;18.48;;;;;;;-148.88;100.00;77622.00;5013089;28;20392;-88
2022/12/12 08:00:46;;;;;;;46.10;17.42;;;;;;;-148.88;100.00;77615.91;5012989;28;20057;-88
2022/12/12 08:03:11;;;;;;;51.58;19.10;;;;;;;-148.88;100.00;77617.94;5013085;28;20048;-86
2022/12/12 08:05:43;;;;;;;57.65;18.45;;;;;;;-148.88;100.00;77613.88;5013328;28;20030;-88
2022/12/12 08:08:08;;;;;;;49.25;16.38;;;;;;;-148.88;100.00;77609.81;5012873;28;20022;-87
2022/12/12 08:10:36;;;;;;;49.42;17.88;;;;;;;-148.88;100.00;77609.81;5013205;28;20435;-88
2022/12/12 08:13:02;;;;;;;54.55;17.63;;;;;;;-148.88;100.00;77613.88;5012726;28;20366;-88
2022/12/12 08:15:27;;;;;;;52.85;18.00;;;;;;;-148.88;100.00;77622.00;5013651;28;20033;-88
2022/12/12 08:17:52;;;;;;;49.95;16.23;;;;;;;-148.88;100.00;77622.00;5011811;28;20080;-88
2022/12/12 08:20:18;;;;;;;49.40;17.13;;;;;;;-148.88;100.00;77617.94;5012790;28;20054;-88
2022/12/12 08:22:43;;;;;;;56.08;17.40;;;;;;;-148.88;100.00;77617.94;5011805;28;20018;-88
2022/12/12 08:25:08;;;;;;;53.00;19.15;;;;;;;-148.88;100.00;77622.00;5012664;28;20030;-87
2022/12/12 08:27:34;;;;;;;53.38;20.13;;;;;;;-148.88;100.00;77609.81;5013091;28;20075;-88
2022/12/12 08:29:59;;;;;;;52.28;18.85;;;;;;;-148.88;100.00;77617.94;5011642;28;20022;-88
2022/12/12 08:32:25;;;;;;;61.80;20.85;;;;;;;-148.88;100.00;77597.59;5012863;28;20026;-88
2022/12/12 08:34:57;;;;;;;62.53;21.55;;;;;;;-148.88;100.00;77593.53;5013427;28;20038;-88
2022/12/12 08:37:23;;;;;;;63.03;20.60;;;;;;;-148.88;100.00;77597.59;5012949;28;20420;-88
2022/12/12 08:39:49;;;;;;;66.47;20.38;;;;;;;-148.88;100.00;77591.50;5012871;28;20529;-88
2022/12/12 08:42:14;;;;;;;66.03;21.58;;;;;;;-148.88;100.00;77585.41;5014174;28;20029;-88
2022/12/12 08:44:39;;;;;;;50.03;18.30;;;;;;;-148.88;100.00;77573.22;5012913;28;20029;-88
2022/12/12 08:47:05;;;;;;;51.15;17.52;;;;;;;-148.88;100.00;77579.31;5012860;28;20117;-88
2022/12/12 08:49:30;;;;;;;50.95;18.38;;;;;;;-148.88;100.00;77565.09;5013095;28;20030;-89
2022/12/12 08:51:56;;;;;;;55.03;19.02;;;;;;;-148.88;100.00;77571.19;5012657;28;20036;-88
2022/12/12 08:54:21;;;;;;;54.05;18.58;;;;;;;-148.88;100.00;77565.09;5014257;28;20104;-88
2022/12/12 08:56:47;;;;;;;48.33;17.52;;;;;;;-148.88;100.00;77552.91;5014779;28;20028;-88
2022/12/12 08:59:12;;;;;;;49.88;18.30;;;;;;;-148.88;100.00;77548.84;5014027;28;20030;-88
2022/12/12 09:01:37;;;;;;;55.05;18.05;;;;;;;-148.88;100.00;77548.84;5014230;28;20056;-88
2022/12/12 09:04:03;;;;;;;49.45;16.98;;;;;;;-148.88;100.00;77548.84;5012775;28;20029;-87
2022/12/12 09:06:28;;;;;;;52.53;18.20;;;;;;;-148.88;100.00;77559.00;5012805;28;20535;-88
2022/12/12 09:08:56;;;;;;;51.72;17.80;;;;;;;-148.88;100.00;77569.16;5015199;28;20030;-88
2022/12/12 09:11:22;;;;;;;49.15;16.70;;;;;;;-148.88;100.00;77561.03;5015044;28;20091;-88
2022/12/12 09:13:47;;;;;;;49.60;17.83;;;;;;;-148.88;100.00;77556.97;5016285;28;20034;-88
2022/12/12 09:16:13;;;;;;;50.42;16.50;;;;;;;-148.88;100.00;77552.91;5016226;28;20442;-88
2022/12/12 09:21:59;;;;;;;51.20;16.88;;;;;;;-148.88;100.00;77552.91;5016192;28;20523;-88
2022/12/12 09:24:25;;;;;;;40.42;15.45;;;;;;;-148.88;100.00;77542.75;5016226;28;20041;-88
2022/12/12 09:26:50;;;;;;;48.47;17.52;;;;;;;-148.88;100.00;77520.38;5016068;28;20104;-88
2022/12/12 09:29:16;;;;;;;50.60;16.65;;;;;;;-148.88;100.00;77524.44;5015872;28;20121;-88
2022/12/12 09:31:41;;;;;;;53.20;17.15;;;;;;;-148.88;100.00;77522.41;5016102;28;20057;-88
2022/12/12 09:34:07;;;;;;;51.67;18.65;;;;;;;-148.88;100.00;77520.38;5015864;28;20022;-88
2022/12/12 09:36:32;;;;;;;43.35;16.13;;;;;;;-148.88;100.00;77520.38;5015770;28;20021;-88
2022/12/12 09:38:57;;;;;;;49.25;17.73;;;;;;;-148.88;100.00;77518.34;5015762;28;20022;-88
2022/12/12 09:41:29;;;;;;;45.17;17.50;;;;;;;-148.88;100.00;77516.31;5015496;28;20109;-88
2022/12/12 09:44:17;;;;;;;39.92;15.50;;;;;;;-148.88;100.00;77516.31;5015683;28;20057;-88
2022/12/12 09:46:50;;;;;;;43.15;14.75;;;;;;;-148.88;100.00;77522.41;5015572;28;20051;-88
2022/12/12 09:49:38;;;;;;;50.20;15.20;;;;;;;-148.88;100.00;77526.47;5015400;28;20029;-88
2022/12/12 09:52:04;;;;;;;39.75;14.45;;;;;;;-148.88;100.00;77512.25;5015457;28;20476;-88
2022/12/12 09:54:30;;;;;;;41.85;14.90;;;;;;;-148.88;100.00;77496.00;5015230;28;20025;-88
2022/12/12 09:57:26;;;;;;;41.42;16.38;;;;;;;-148.88;100.00;77500.06;5015293;28;20095;-88
2022/12/12 10:00:06;;;;;;;43.05;15.05;;;;;;;-148.88;100.00;77487.88;5015633;28;20057;-88
2022/12/12 10:03:00;;;;;;;41.35;16.00;;;;;;;-148.88;100.00;77479.75;5015186;28;20022;-88
2022/12/12 10:05:54;;;;;;;36.95;14.95;;;;;;;-148.88;100.00;77475.69;5015367;28;20053;-88
2022/12/12 10:08:56;;;;;;;42.60;15.30;;;;;;;-148.88;100.00;77467.56;5015467;28;20030;-88
2022/12/12 10:11:49;;;;;;;33.53;14.68;;;;;;;-148.88;100.00;77463.50;5014340;28;20030;-88
2022/12/12 10:14:17;;;;;;;41.65;14.40;;;;;;;-148.88;100.00;77465.53;5015239;28;20041;-88
2022/12/12 10:16:43;;;;;;;38.65;14.90;;;;;;;-148.88;100.00;77447.22;5015024;28;20052;-88
2022/12/12 10:19:20;;;;;;;36.75;14.13;;;;;;;-148.88;100.00;77443.16;5014582;28;20382;-87
2022/12/12 10:21:48;;;;;;;38.03;14.55;;;;;;;-148.88;100.00;77443.16;5014789;28;20080;-88
2022/12/12 10:24:35;;;;;;;40.88;15.68;;;;;;;-148.88;100.00;77441.13;5015013;28;20026;-89
2022/12/12 10:27:09;;;;;;;35.08;14.02;;;;;;;-148.88;100.00;77455.38;5016295;28;20488;-88
2022/12/12 10:29:35;;;;;;;44.30;16.88;;;;;;;-148.88;100.00;77451.28;5015319;28;20022;-89
2022/12/12 10:32:07;;;;;;;39.30;13.63;;;;;;;-148.88;100.00;77451.28;5015014;28;20029;-89
2022/12/12 10:34:46;;;;;;;38.53;15.35;;;;;;;-148.88;100.00;77439.09;5014836;28;20072;-88
2022/12/12 10:37:17;;;;;;;39.78;14.10;;;;;;;-148.88;100.00;77435.03;5015110;28;20030;-87
2022/12/12 10:39:54;;;;;;;36.00;13.70;;;;;;;-148.88;100.00;77426.91;5014857;28;20045;-88
2022/12/12 10:42:32;;;;;;;32.53;13.68;;;;;;;-148.88;100.00;77426.91;5014471;28;20026;-89
2022/12/12 10:45:07;;;;;;;34.70;13.88;;;;;;;-148.88;100.00;77414.72;5014362;28;20037;-88
2022/12/12 10:47:33;;;;;;;37.45;13.63;;;;;;;-148.88;100.00;77398.47;5014583;28;20052;-88
2022/12/12 10:50:19;;;;;;;40.03;13.90;;;;;;;-148.88;100.00;77384.25;5014448;28;20048;-88
2022/12/12 10:52:44;;;;;;;35.75;13.65;;;;;;;-148.88;100.00;77386.28;5014319;28;20060;-88
2022/12/12 10:55:34;;;;;;;45.28;15.77;;;;;;;-148.88;100.00;77390.34;5014226;28;20172;-88
2022/12/12 10:58:01;;;;;;;44.45;14.43;;;;;;;-148.88;100.00;77378.16;5014296;28;20105;-88
2022/12/12 11:00:36;;;;;;;34.72;13.63;;;;;;;-148.88;100.00;77361.88;5014098;28;20022;-88
2022/12/12 11:03:23;;;;;;;39.35;15.05;;;;;;;-148.88;100.00;77355.78;5014234;28;20459;-88
2022/12/12 11:05:49;;;;;;;34.55;12.65;;;;;;;-148.88;100.00;77357.81;5013497;28;20029;-89
2022/12/12 11:08:26;;;;;;;33.92;14.60;;;;;;;-148.88;100.00;77349.69;5014403;28;20542;-88
2022/12/12 11:11:06;;;;;;;32.70;12.95;;;;;;;-148.88;100.00;77333.44;5014342;28;20032;-88
2022/12/12 11:13:38;;;;;;;34.22;12.70;;;;;;;-148.88;100.00;77323.28;5013623;28;20041;-88
2022/12/12 11:16:14;;;;;;;32.85;12.50;;;;;;;-148.88;100.00;77309.06;5013862;28;20025;-89
2022/12/12 11:18:39;;;;;;;33.90;12.88;;;;;;;-148.88;100.00;77305.00;5014545;28;20036;-88
2022/12/12 11:21:12;;;;;;;33.33;13.32;;;;;;;-148.88;99.70;77305.00;5013909;28;20026;-88
2022/12/12 11:23:40;;;;;;;36.53;13.82;;;;;;;-148.88;99.48;77300.94;5015250;28;20053;-90
2022/12/12 11:26:15;;;;;;;40.30;13.77;;;;;;;-148.88;99.54;77300.94;5014486;28;20029;-90